Terminal Aerodrome Forecast
Issued by NWS

Home | Current Version | Previous Version | Text Only | Print | Product List | Glossary On
Versions: 1 2 3 4 5 6 7 8 9 10 11 12 13 14 15 16
000
FTUS46 KLOX 061100
TAFVNY
TAF
KVNY 061128Z 0612/0712 36018G24KT P6SM SKC
     FM061600 01020G30KT P6SM SKC
     FM062200 36012G20KT P6SM SKC
     FM070200 35008KT P6SM SKC=

USA.gov is the U.S. government's official web portal to all federal, state and local government web resources and services.